Time;durP1;ratioP1;P1;durP2;ratioP2;P2;SDS_P1;SDS_P2;PMS_P1;PMS_P2;Temp;Humidity;BMP_temperature;BMP_pressure;BME280_temperature;BME280_humidity;BME280_pressure;Samples;Min_cycle;Max_cycle;Signal;HPM_P1;HPM_P2
2022/03/24 00:01:21;;;;;;;12.63;7.27;;;;;;;19.64;49.38;101428.28;5112505;27;20188;-64
2022/03/24 00:03:47;;;;;;;13.60;6.10;;;;;;;19.57;49.08;101435.81;5113536;27;20193;-64
2022/03/24 00:06:13;;;;;;;11.80;6.97;;;;;;;19.52;49.31;101431.16;5117152;27;20233;-64
2022/03/24 00:08:39;;;;;;;15.47;7.33;;;;;;;19.49;49.24;101431.03;5115399;27;20592;-64
2022/03/24 00:11:04;;;;;;;17.10;7.30;;;;;;;19.47;49.47;101427.72;5111888;28;20448;-64
2022/03/24 00:13:30;;;;;;;7.73;5.97;;;;;;;19.46;49.22;101421.13;5115715;27;20184;-64
2022/03/24 00:15:55;;;;;;;10.27;6.90;;;;;;;19.42;49.59;101422.22;5099946;28;20194;-64
2022/03/24 00:18:20;;;;;;;10.23;6.90;;;;;;;19.42;49.72;101425.91;5093955;28;20199;-64
2022/03/24 00:20:46;;;;;;;12.80;6.40;;;;;;;19.40;49.95;101422.59;5114224;27;20185;-64
2022/03/24 00:23:11;;;;;;;9.17;6.00;;;;;;;19.39;49.82;101412.34;5113906;27;20182;-64
2022/03/24 00:25:37;;;;;;;10.30;5.77;;;;;;;19.39;49.89;101411.50;5109323;28;20640;-64
2022/03/24 00:28:02;;;;;;;9.50;6.10;;;;;;;19.41;49.71;101411.97;5110660;28;20218;-64
2022/03/24 00:30:28;;;;;;;15.30;6.20;;;;;;;19.40;49.74;101414.00;5111955;27;20212;-64
2022/03/24 00:32:53;;;;;;;14.70;6.43;;;;;;;19.39;50.02;101411.50;5114275;27;20202;-64
2022/03/24 00:35:19;;;;;;;12.20;5.80;;;;;;;19.36;50.22;101412.22;5111638;28;20199;-65
2022/03/24 00:37:44;;;;;;;10.20;5.33;;;;;;;19.37;50.21;101411.84;5111765;28;20255;-64
2022/03/24 00:40:10;;;;;;;10.17;7.03;;;;;;;19.34;50.60;101409.72;5110451;28;20181;-63
2022/03/24 00:42:36;;;;;;;10.63;6.17;;;;;;;19.36;50.25;101415.91;5111537;28;20204;-64
2022/03/24 00:45:04;;;;;;;8.70;5.87;;;;;;;19.37;50.21;101417.56;5111707;28;20178;-64
2022/03/24 00:47:35;;;;;;;8.57;5.70;;;;;;;19.37;50.29;101411.03;5111768;28;20426;-63
2022/03/24 00:50:01;;;;;;;9.17;5.87;;;;;;;19.34;50.74;101401.13;5110731;28;20419;-63
2022/03/24 00:52:26;;;;;;;8.87;5.60;;;;;;;19.32;50.64;101400.63;5111566;28;20455;-64
2022/03/24 00:54:52;;;;;;;9.30;5.80;;;;;;;19.35;50.72;101405.66;5111758;28;20415;-64
2022/03/24 00:57:17;;;;;;;9.67;6.63;;;;;;;19.33;50.70;101408.06;5111097;27;20563;-63
2022/03/24 00:59:43;;;;;;;6.80;5.03;;;;;;;19.32;50.77;101408.41;5111352;27;20208;-63
2022/03/24 01:02:09;;;;;;;8.47;5.20;;;;;;;19.32;50.52;101403.50;5111951;28;20193;-63
2022/03/24 01:04:35;;;;;;;10.00;5.50;;;;;;;19.33;50.75;101399.47;5118335;27;20304;-63
2022/03/24 01:07:01;;;;;;;10.43;6.30;;;;;;;19.33;50.50;101401.47;5129199;27;20419;-63
2022/03/24 01:09:26;;;;;;;8.20;5.73;;;;;;;19.31;50.83;101401.84;5131787;27;20177;-63
2022/03/24 01:11:52;;;;;;;8.10;4.97;;;;;;;19.35;50.64;101402.78;5112078;27;20213;-64
2022/03/24 01:14:17;;;;;;;10.00;5.87;;;;;;;19.33;50.61;101405.19;5109774;28;20182;-64
2022/03/24 01:16:43;;;;;;;9.70;5.80;;;;;;;19.32;50.63;101400.63;5115620;27;20173;-64
2022/03/24 01:19:08;;;;;;;8.73;6.10;;;;;;;19.34;50.80;101394.56;5130748;27;20289;-64
2022/03/24 01:21:36;;;;;;;8.20;4.87;;;;;;;19.30;51.07;101393.59;5131422;27;20206;-63
2022/03/24 01:24:01;;;;;;;8.53;5.50;;;;;;;19.33;50.71;101398.63;5131916;27;20220;-63
2022/03/24 01:26:27;;;;;;;7.47;5.07;;;;;;;19.32;50.75;101405.53;5131286;27;21226;-63
2022/03/24 01:28:53;;;;;;;7.23;5.53;;;;;;;19.31;50.98;101401.84;5131256;27;20203;-64
2022/03/24 01:31:20;;;;;;;10.43;4.67;;;;;;;19.34;50.73;101391.69;5131555;27;20205;-64
2022/03/24 01:33:47;;;;;;;8.50;5.47;;;;;;;19.33;50.96;101405.19;5131438;27;20176;-63
2022/03/24 01:36:13;;;;;;;10.60;6.40;;;;;;;19.33;50.67;101404.34;5131001;27;20873;-63
2022/03/24 01:38:38;;;;;;;8.30;5.70;;;;;;;19.32;50.79;101396.94;5131452;27;20448;-63
2022/03/24 01:41:04;;;;;;;8.30;5.30;;;;;;;19.31;50.98;101396.09;5117288;27;20584;-63
2022/03/24 01:43:30;;;;;;;7.83;5.03;;;;;;;19.31;50.88;101390.38;5112950;27;20173;-63
2022/03/24 01:45:56;;;;;;;7.87;5.30;;;;;;;19.27;51.31;101395.16;5110524;28;20751;-63
2022/03/24 01:48:21;;;;;;;7.60;5.00;;;;;;;19.28;50.70;101391.13;5110213;28;20430;-63
2022/03/24 01:50:47;;;;;;;9.20;5.30;;;;;;;19.28;50.78;101393.13;5110151;28;20176;-63
2022/03/24 01:53:12;;;;;;;7.07;5.00;;;;;;;19.27;50.79;101394.34;5110352;27;20209;-63
2022/03/24 01:55:39;;;;;;;6.83;4.83;;;;;;;19.26;50.93;101399.22;5110478;28;20226;-63
2022/03/24 01:58:04;;;;;;;9.40;5.10;;;;;;;19.24;50.97;101393.03;5110196;28;20684;-63
2022/03/24 02:00:30;;;;;;;10.77;5.60;;;;;;;19.26;50.94;101395.53;5109125;28;20428;-63
2022/03/24 02:03:02;;;;;;;8.27;5.07;;;;;;;19.25;51.21;101393.84;5111621;27;20173;-64
2022/03/24 02:05:31;;;;;;;8.23;5.50;;;;;;;19.24;51.17;101386.44;5109315;28;20228;-63
2022/03/24 02:08:00;;;;;;;9.00;5.20;;;;;;;19.23;51.27;101397.09;5095180;28;20906;-63
2022/03/24 02:10:25;;;;;;;7.40;5.10;;;;;;;19.24;51.25;101393.03;5109755;28;20435;-63
2022/03/24 02:12:53;;;;;;;6.10;5.03;;;;;;;19.24;51.04;101390.16;5109405;28;20524;-63
2022/03/24 02:15:18;;;;;;;6.60;4.77;;;;;;;19.23;50.95;101387.66;5108786;28;20185;-63
2022/03/24 02:17:48;;;;;;;7.40;5.13;;;;;;;19.23;50.89;101393.38;5123989;27;20419;-63
2022/03/24 02:20:14;;;;;;;9.90;5.43;;;;;;;19.19;51.24;101387.50;5127017;27;20181;-64
2022/03/24 02:22:39;;;;;;;8.90;5.17;;;;;;;19.20;51.32;101391.19;5130586;27;20945;-63
2022/03/24 02:25:07;;;;;;;8.70;5.30;;;;;;;19.19;51.25;101380.94;5120297;27;20174;-63
2022/03/24 02:27:32;;;;;;;9.63;5.47;;;;;;;19.20;51.41;101386.31;5110750;27;20192;-63
2022/03/24 02:29:58;;;;;;;8.70;5.20;;;;;;;19.20;51.04;101383.44;5107222;28;20415;-63
2022/03/24 02:32:23;;;;;;;7.80;5.57;;;;;;;19.17;51.33;101389.06;5109791;28;20198;-64
2022/03/24 02:34:51;;;;;;;9.47;5.20;;;;;;;19.16;51.34;101385.34;5112178;27;20301;-63
2022/03/24 02:37:22;;;;;;;7.63;4.60;;;;;;;19.16;51.62;101379.63;5109742;28;20173;-63
2022/03/24 02:39:51;;;;;;;7.07;5.20;;;;;;;19.15;51.30;101379.97;5109528;28;20407;-63
2022/03/24 02:42:20;;;;;;;9.93;5.43;;;;;;;19.15;51.32;101375.09;5109586;28;20412;-63
2022/03/24 02:44:47;;;;;;;6.87;4.67;;;;;;;19.16;51.52;101384.53;5109127;28;20408;-63
2022/03/24 02:47:13;;;;;;;9.40;5.40;;;;;;;19.16;51.50;101381.66;5091391;28;20502;-63
2022/03/24 02:49:39;;;;;;;8.30;5.10;;;;;;;19.14;51.94;101379.16;5109510;28;20416;-63
2022/03/24 02:52:05;;;;;;;6.93;4.90;;;;;;;19.13;51.56;101374.63;5109574;28;20571;-63
2022/03/24 02:54:31;;;;;;;9.20;5.20;;;;;;;19.14;51.88;101379.16;5109520;28;20165;-63
2022/03/24 02:56:56;;;;;;;8.67;5.00;;;;;;;19.14;51.50;101381.19;5108955;28;20411;-63
2022/03/24 02:59:22;;;;;;;10.53;4.80;;;;;;;19.12;51.44;101378.66;5111542;27;20257;-63
2022/03/24 03:01:59;;;;;;;8.67;5.60;;;;;;;19.13;51.63;101380.38;5116400;27;20526;-63
2022/03/24 03:04:25;;;;;;;8.13;5.50;;;;;;;19.15;51.39;101391.44;5121569;27;20304;-64
2022/03/24 03:06:51;;;;;;;7.63;5.13;;;;;;;19.14;51.54;101384.03;5108623;28;20978;-63
2022/03/24 03:09:17;;;;;;;8.30;5.00;;;;;;;19.12;51.62;101392.97;5107920;28;20173;-63
2022/03/24 03:11:45;;;;;;;6.50;4.50;;;;;;;19.14;51.39;101396.34;5109028;28;20209;-63
2022/03/24 03:14:11;;;;;;;9.50;5.70;;;;;;;19.15;51.73;101389.41;5116633;28;20544;-63
2022/03/24 03:16:37;;;;;;;10.73;5.63;;;;;;;19.15;52.11;101395.13;5120459;27;20425;-63
2022/03/24 03:19:03;;;;;;;6.30;4.43;;;;;;;19.14;51.78;101390.63;5136575;27;20505;-63
2022/03/24 03:21:29;;;;;;;8.23;4.73;;;;;;;19.14;51.37;101395.50;5136245;27;20246;-63
2022/03/24 03:23:57;;;;;;;7.63;4.57;;;;;;;19.14;51.56;101396.34;5136791;27;20431;-63
2022/03/24 03:26:23;;;;;;;7.80;4.93;;;;;;;19.12;51.82;101398.69;5136022;27;20179;-63
2022/03/24 03:28:50;;;;;;;7.17;4.40;;;;;;;19.12;51.48;101395.84;5136721;27;20422;-63
2022/03/24 03:31:16;;;;;;;6.10;4.63;;;;;;;19.14;51.13;101392.63;5136092;27;20184;-63
2022/03/24 03:33:41;;;;;;;7.23;4.77;;;;;;;19.15;51.81;101400.88;5135833;27;20426;-63
2022/03/24 03:36:07;;;;;;;6.17;4.50;;;;;;;19.15;51.54;101400.88;5136236;27;20545;-63
2022/03/24 03:38:33;;;;;;;9.90;5.20;;;;;;;19.17;51.38;101404.19;5136449;27;20184;-63
2022/03/24 03:41:01;;;;;;;6.60;4.63;;;;;;;19.13;51.58;101399.56;5105219;28;20188;-63
2022/03/24 03:43:28;;;;;;;9.53;4.67;;;;;;;19.15;51.51;101398.00;5116196;28;20513;-63
2022/03/24 03:45:53;;;;;;;6.77;4.63;;;;;;;19.13;51.40;101403.25;5116665;27;20484;-63
2022/03/24 03:48:18;;;;;;;9.60;4.80;;;;;;;19.16;51.40;101410.28;5115908;28;20532;-63
2022/03/24 03:50:44;;;;;;;8.57;4.93;;;;;;;19.17;51.27;101409.91;5115331;28;20178;-63
2022/03/24 03:53:09;;;;;;;8.17;4.77;;;;;;;19.14;51.52;101406.94;5115975;28;20213;-63
2022/03/24 03:55:36;;;;;;;7.60;4.50;;;;;;;19.15;51.40;101403.72;5115403;28;20177;-63
2022/03/24 03:58:02;;;;;;;8.90;4.90;;;;;;;19.13;51.44;101405.28;5115597;27;20593;-63
2022/03/24 04:03:12;;;;;;;7.50;4.60;;;;;;;19.16;51.28;101401.72;5115726;28;20843;-63
2022/03/24 04:05:38;;;;;;;7.23;4.50;;;;;;;19.14;51.40;101404.94;5115163;28;20471;-63
2022/03/24 04:08:03;;;;;;;5.13;4.03;;;;;;;19.13;51.29;101411.00;5115381;28;20177;-63
2022/03/24 04:10:30;;;;;;;5.97;4.40;;;;;;;19.13;51.36;101406.13;5116537;27;20205;-63
2022/03/24 04:12:55;;;;;;;7.20;5.20;;;;;;;19.15;51.38;101403.72;5115875;28;20202;-63
2022/03/24 04:15:24;;;;;;;6.20;4.60;;;;;;;19.14;51.48;101404.94;5117822;27;20426;-63
2022/03/24 04:17:50;;;;;;;7.27;3.93;;;;;;;19.14;51.49;101406.94;5121237;27;20182;-63
2022/03/24 04:20:20;;;;;;;6.13;4.30;;;;;;;19.15;51.61;101400.00;5115087;28;20430;-63
2022/03/24 04:22:49;;;;;;;7.50;4.47;;;;;;;19.13;51.52;101406.13;5117789;27;20418;-63
2022/03/24 04:25:17;;;;;;;6.90;4.43;;;;;;;19.11;51.35;101408.50;5111436;28;20484;-63
2022/03/24 04:27:43;;;;;;;6.20;4.07;;;;;;;19.14;51.42;101402.06;5112306;28;20419;-63
2022/03/24 04:30:09;;;;;;;7.70;4.70;;;;;;;19.12;51.52;101409.34;5112109;28;20891;-64
2022/03/24 04:32:35;;;;;;;5.63;4.43;;;;;;;19.16;51.39;101398.84;5112437;28;20477;-63
2022/03/24 04:35:01;;;;;;;6.07;4.00;;;;;;;19.12;51.63;101401.56;5114459;27;20181;-63
2022/03/24 04:37:26;;;;;;;9.70;4.67;;;;;;;19.13;51.54;101405.28;5095662;27;20484;-63
2022/03/24 04:39:52;;;;;;;6.30;4.30;;;;;;;19.13;51.31;101400.41;5111809;28;20194;-63
2022/03/24 04:42:17;;;;;;;7.27;4.30;;;;;;;19.11;51.35;101402.75;5111863;28;20182;-63
2022/03/24 04:44:43;;;;;;;7.40;4.20;;;;;;;19.09;51.70;101399.44;5111907;28;20170;-63
2022/03/24 04:47:08;;;;;;;8.27;5.30;;;;;;;19.10;51.56;101406.81;5112113;28;20174;-63
2022/03/24 04:49:33;;;;;;;6.17;4.07;;;;;;;19.11;51.61;101411.34;5111569;28;20582;-63
2022/03/24 04:51:59;;;;;;;5.60;4.10;;;;;;;19.12;51.61;101407.28;5111590;28;20231;-63
2022/03/24 04:54:24;;;;;;;7.03;4.30;;;;;;;19.10;51.58;101412.56;5110806;28;20166;-63
2022/03/24 04:56:50;;;;;;;5.53;4.10;;;;;;;19.13;51.46;101416.72;5109848;28;20166;-63
2022/03/24 04:59:15;;;;;;;5.97;3.97;;;;;;;19.11;51.47;101425.66;5116332;27;20177;-63
2022/03/24 05:01:41;;;;;;;7.57;5.20;;;;;;;19.11;51.52;101419.94;5121460;27;20579;-63
2022/03/24 05:04:07;;;;;;;6.27;4.63;;;;;;;19.08;51.82;101428.41;5115549;27;20205;-63
2022/03/24 05:06:33;;;;;;;7.33;4.77;;;;;;;19.11;51.69;101436.31;5112219;27;20262;-63
2022/03/24 05:08:59;;;;;;;5.00;4.37;;;;;;;19.08;51.75;101443.56;5111359;28;20449;-63
2022/03/24 05:11:24;;;;;;;4.50;3.87;;;;;;;19.11;51.51;101439.97;5127299;27;20180;-63
2022/03/24 05:13:51;;;;;;;6.83;4.47;;;;;;;19.09;51.42;101436.66;5132006;27;20172;-63
2022/03/24 05:16:18;;;;;;;7.33;4.77;;;;;;;19.09;51.49;101438.66;5129786;27;20206;-63
2022/03/24 05:18:43;;;;;;;5.87;4.17;;;;;;;19.10;51.61;101444.03;5111652;28;20833;-63
2022/03/24 05:21:09;;;;;;;8.17;4.90;;;;;;;19.12;51.40;101444.50;5111215;28;20415;-63
2022/03/24 05:23:34;;;;;;;7.47;4.80;;;;;;;19.08;51.70;101445.59;5111365;28;20243;-63
2022/03/24 05:26:00;;;;;;;6.33;4.53;;;;;;;19.07;51.52;101447.59;5109498;28;20305;-63
2022/03/24 05:28:25;;;;;;;6.90;4.43;;;;;;;19.09;51.74;101439.50;5110585;28;20207;-63
2022/03/24 05:30:50;;;;;;;6.63;4.90;;;;;;;19.08;51.85;101443.56;5109368;28;20174;-63
2022/03/24 05:33:16;;;;;;;6.23;4.47;;;;;;;19.07;51.72;101447.59;5110997;28;20229;-63
2022/03/24 05:35:42;;;;;;;5.80;3.80;;;;;;;19.08;51.58;101445.59;5109526;28;20178;-63
2022/03/24 05:38:07;;;;;;;6.77;4.00;;;;;;;19.09;51.32;101456.69;5110891;28;20241;-63
2022/03/24 05:40:35;;;;;;;5.57;4.07;;;;;;;19.07;51.81;101458.22;5109975;28;20923;-63
2022/03/24 05:43:01;;;;;;;5.60;4.40;;;;;;;19.07;51.60;101458.22;5110937;28;20268;-63
2022/03/24 05:45:26;;;;;;;5.43;4.33;;;;;;;19.10;51.40;101449.75;5110483;28;20399;-63
2022/03/24 05:47:52;;;;;;;6.50;4.40;;;;;;;19.08;51.76;101457.88;5113178;27;20457;-63
2022/03/24 05:50:17;;;;;;;7.30;4.30;;;;;;;19.09;51.44;101462.41;5109913;28;20188;-63
2022/03/24 05:52:43;;;;;;;7.50;4.43;;;;;;;19.08;51.47;101460.75;5110259;28;20559;-63
2022/03/24 05:55:09;;;;;;;6.87;4.60;;;;;;;19.08;51.68;101460.75;5110503;28;20659;-63
2022/03/24 05:57:34;;;;;;;5.17;4.17;;;;;;;19.08;51.43;101457.03;5110044;28;20170;-63
2022/03/24 06:00:01;;;;;;;5.97;4.13;;;;;;;19.06;51.76;101463.13;5109108;27;20184;-63
2022/03/24 06:02:26;;;;;;;7.10;4.90;;;;;;;19.05;51.54;101466.31;5109878;28;20169;-63
2022/03/24 06:04:52;;;;;;;6.63;4.03;;;;;;;19.08;51.36;101463.59;5097292;28;20512;-63
2022/03/24 06:07:18;;;;;;;5.80;4.63;;;;;;;19.08;51.80;101469.34;5111845;27;20680;-64
2022/03/24 06:09:45;;;;;;;7.57;4.87;;;;;;;19.09;51.48;101471.00;5109996;28;20452;-63
2022/03/24 06:12:10;;;;;;;7.87;4.37;;;;;;;19.06;51.62;101468.84;5112429;27;20233;-63
2022/03/24 06:14:36;;;;;;;5.70;4.20;;;;;;;19.06;51.69;101473.75;5110601;27;20427;-63
2022/03/24 06:17:03;;;;;;;6.20;4.57;;;;;;;19.06;51.54;101477.41;5099570;28;20186;-63
2022/03/24 06:19:29;;;;;;;6.10;4.00;;;;;;;19.05;51.91;101472.91;5109511;28;20508;-63
2022/03/24 06:21:54;;;;;;;8.57;4.60;;;;;;;19.09;51.34;101473.88;5108951;28;20954;-63
2022/03/24 06:24:20;;;;;;;5.90;4.10;;;;;;;19.09;51.56;101479.59;5112339;27;20172;-63
2022/03/24 06:26:45;;;;;;;7.10;4.30;;;;;;;19.09;51.73;101473.00;5109710;28;20178;-63
2022/03/24 06:29:13;;;;;;;5.43;3.70;;;;;;;19.07;51.54;101470.50;5109928;28;20173;-61
2022/03/24 06:31:41;;;;;;;5.30;4.10;;;;;;;19.07;51.67;101475.41;5109659;28;20209;-61
2022/03/24 06:34:08;;;;;;;6.40;4.57;;;;;;;19.07;51.38;101475.41;5110237;28;20454;-61
2022/03/24 06:36:33;;;;;;;5.77;3.87;;;;;;;19.04;51.76;101479.81;5109328;28;20424;-61
2022/03/24 06:38:58;;;;;;;8.03;4.50;;;;;;;19.05;51.67;101478.63;5093589;28;20450;-61
2022/03/24 06:41:24;;;;;;;5.50;4.30;;;;;;;19.07;51.66;101476.22;5110117;28;20628;-61
2022/03/24 06:43:50;;;;;;;5.23;4.17;;;;;;;19.06;51.65;101474.56;5127880;27;20635;-61
2022/03/24 06:46:15;;;;;;;6.57;4.20;;;;;;;19.06;51.62;101474.56;5128869;27;20660;-61
2022/03/24 06:48:41;;;;;;;7.60;4.80;;;;;;;19.04;51.59;101474.09;5128767;27;20675;-61
2022/03/24 06:51:07;;;;;;;5.90;4.30;;;;;;;19.05;51.65;101472.03;5129940;27;20687;-61
2022/03/24 06:53:32;;;;;;;4.63;3.60;;;;;;;19.07;51.67;101472.53;5129464;27;20204;-61
2022/03/24 06:55:58;;;;;;;7.30;4.97;;;;;;;19.06;51.66;101473.75;5129674;27;20172;-61
2022/03/24 06:58:24;;;;;;;6.77;4.70;;;;;;;19.04;51.53;101476.97;5125861;27;20264;-61
2022/03/24 07:00:50;;;;;;;4.37;3.87;;;;;;;19.06;51.62;101468.84;5129474;27;20410;-61
2022/03/24 07:03:15;;;;;;;5.50;4.00;;;;;;;19.05;51.34;101464.31;5129681;27;20433;-61
2022/03/24 07:05:41;;;;;;;8.77;4.87;;;;;;;19.04;51.74;101470.38;5111798;27;20229;-61
2022/03/24 07:08:08;;;;;;;7.90;4.57;;;;;;;19.04;51.64;101467.53;5111927;28;20211;-61
2022/03/24 07:10:34;;;;;;;4.87;3.90;;;;;;;19.03;51.53;101472.44;5108662;28;20184;-60
2022/03/24 07:12:59;;;;;;;5.80;4.13;;;;;;;19.06;51.40;101477.41;5109297;28;20467;-60
2022/03/24 07:15:26;;;;;;;5.10;4.10;;;;;;;19.02;51.21;101479.31;5114777;27;20177;-63
2022/03/24 07:17:51;;;;;;;23.73;17.17;;;;;;;18.64;48.52;101484.50;5113815;28;20257;-63
2022/03/24 07:20:17;;;;;;;35.93;22.20;;;;;;;18.49;44.16;101479.44;5122383;28;20826;-63
2022/03/24 07:22:42;;;;;;;36.73;24.23;;;;;;;18.85;44.07;101476.69;5125828;28;20173;-64
2022/03/24 07:25:08;;;;;;;37.90;25.20;;;;;;;19.19;43.76;101484.84;5128286;28;20185;-63
2022/03/24 07:27:34;;;;;;;33.00;23.13;;;;;;;19.14;42.03;101476.50;5129042;28;20264;-63
2022/03/24 07:30:00;;;;;;;33.37;22.43;;;;;;;19.17;42.26;101466.34;5128510;28;20426;-64
2022/03/24 07:32:25;;;;;;;30.73;21.03;;;;;;;19.37;41.64;101474.84;5113062;28;20289;-64
2022/03/24 07:34:51;;;;;;;29.70;19.87;;;;;;;19.40;41.78;101473.28;5090058;28;20419;-63
2022/03/24 07:37:16;;;;;;;29.30;20.63;;;;;;;19.43;41.25;101481.19;5108397;28;20162;-64
2022/03/24 07:39:42;;;;;;;30.70;18.47;;;;;;;19.48;42.50;101478.06;5089537;28;20251;-64
2022/03/24 07:42:08;;;;;;;30.77;20.10;;;;;;;19.54;42.47;101471.75;5108145;28;20625;-64
2022/03/24 07:44:33;;;;;;;25.43;18.17;;;;;;;19.58;42.41;101471.84;5109199;28;20188;-64
2022/03/24 07:46:59;;;;;;;23.83;17.17;;;;;;;19.61;42.13;101474.81;5120319;27;20225;-64
2022/03/24 07:49:24;;;;;;;29.20;18.13;;;;;;;19.73;41.69;101468.25;5092921;28;20246;-64
2022/03/24 07:51:50;;;;;;;27.33;17.40;;;;;;;19.73;41.45;101471.97;5108805;28;20193;-64
2022/03/24 07:54:15;;;;;;;27.53;16.70;;;;;;;19.64;41.67;101473.28;5108401;28;20157;-64
2022/03/24 07:56:41;;;;;;;27.33;19.50;;;;;;;19.76;42.47;101481.88;5107964;28;20631;-64
2022/03/24 07:59:06;;;;;;;31.60;19.00;;;;;;;19.70;41.80;101478.41;5110205;28;20189;-64
2022/03/24 08:01:33;;;;;;;27.40;17.13;;;;;;;19.55;43.71;101479.13;5111677;28;20173;-63
2022/03/24 08:04:00;;;;;;;26.13;18.20;;;;;;;19.50;43.63;101485.09;5111939;28;20256;-64
2022/03/24 08:06:26;;;;;;;31.47;18.00;;;;;;;19.48;43.85;101481.78;5113262;28;20466;-64
2022/03/24 08:08:51;;;;;;;27.70;17.00;;;;;;;19.44;43.74;101479.97;5115501;27;20426;-64
2022/03/24 08:11:17;;;;;;;24.20;17.20;;;;;;;19.46;42.86;101483.34;5099010;27;20518;-64
2022/03/24 08:13:42;;;;;;;24.53;16.57;;;;;;;19.47;42.50;101477.22;5112482;28;20214;-63
2022/03/24 08:16:08;;;;;;;26.37;18.47;;;;;;;19.49;41.94;101482.59;5111634;28;20176;-63
2022/03/24 08:18:33;;;;;;;24.53;16.80;;;;;;;19.46;41.83;101469.00;5110516;27;20182;-64
2022/03/24 08:20:59;;;;;;;24.47;17.90;;;;;;;19.37;42.64;101480.56;5114974;27;20181;-63
2022/03/24 08:23:24;;;;;;;24.40;17.07;;;;;;;19.37;42.75;101483.44;5111682;28;20154;-62
2022/03/24 08:25:51;;;;;;;28.87;17.80;;;;;;;19.37;42.75;101480.56;5111809;28;20272;-63
2022/03/24 08:28:16;;;;;;;26.80;18.30;;;;;;;19.40;43.37;101485.59;5112517;28;20584;-64
2022/03/24 08:30:42;;;;;;;27.23;17.47;;;;;;;19.39;43.55;101489.66;5112471;28;20427;-63
2022/03/24 08:33:10;;;;;;;25.27;16.70;;;;;;;19.33;43.29;101488.22;5112448;28;20210;-63
2022/03/24 08:35:36;;;;;;;28.47;18.50;;;;;;;19.32;43.36;101485.72;5111690;28;20447;-63
2022/03/24 08:38:01;;;;;;;25.67;16.83;;;;;;;19.38;42.63;101484.28;5111959;28;20447;-63
2022/03/24 08:40:27;;;;;;;23.07;16.37;;;;;;;19.40;42.87;101482.72;5111270;28;20186;-63
2022/03/24 08:42:52;;;;;;;27.10;17.17;;;;;;;19.46;43.99;101481.28;5130176;27;20169;-63
2022/03/24 08:45:18;;;;;;;28.87;17.70;;;;;;;19.44;43.90;101498.00;5128598;27;20184;-63
2022/03/24 08:47:43;;;;;;;24.90;18.30;;;;;;;19.45;43.99;101488.22;5111443;28;20599;-62
2022/03/24 08:50:10;;;;;;;27.93;17.20;;;;;;;19.42;44.52;101491.78;5120329;27;20188;-61
2022/03/24 08:52:36;;;;;;;25.47;16.97;;;;;;;19.34;43.69;101481.31;5114085;27;20215;-62
2022/03/24 08:55:05;;;;;;;26.23;16.00;;;;;;;19.33;44.07;101482.50;5131925;27;20415;-62
2022/03/24 08:57:31;;;;;;;29.30;17.27;;;;;;;19.36;43.43;101476.03;5132857;27;20260;-62
2022/03/24 08:59:57;;;;;;;24.33;16.27;;;;;;;19.36;44.03;101484.63;5131796;27;20435;-62
2022/03/24 09:02:23;;;;;;;28.30;16.27;;;;;;;19.43;44.19;101489.75;5133177;27;20628;-61
2022/03/24 09:04:52;;;;;;;37.70;16.63;;;;;;;19.43;44.93;101495.50;5131941;27;20434;-62
2022/03/24 09:07:18;;;;;;;27.30;15.33;;;;;;;19.39;44.91;101489.66;5130976;27;20250;-61
2022/03/24 09:09:43;;;;;;;25.20;14.97;;;;;;;19.43;45.49;101487.75;5128913;27;20438;-61
2022/03/24 09:12:09;;;;;;;23.80;14.57;;;;;;;19.47;45.67;101490.72;5111073;28;20483;-61
2022/03/24 09:14:38;;;;;;;22.37;13.93;;;;;;;19.51;45.77;101491.69;5113404;27;20174;-61
2022/03/24 09:17:04;;;;;;;21.57;13.80;;;;;;;19.47;46.13;101491.53;5120137;27;20181;-61
2022/03/24 09:19:29;;;;;;;23.13;13.57;;;;;;;19.45;46.01;101488.22;5132121;27;20444;-61
2022/03/24 09:21:55;;;;;;;25.00;14.40;;;;;;;19.43;46.29;101484.88;5132050;27;20163;-61
2022/03/24 09:24:20;;;;;;;21.73;13.83;;;;;;;19.45;46.19;101487.38;5132758;27;20177;-61
2022/03/24 09:26:46;;;;;;;29.77;13.03;;;;;;;19.45;46.66;101488.22;5132798;27;20218;-61
2022/03/24 09:29:11;;;;;;;22.20;13.33;;;;;;;19.41;46.29;101486.44;5131848;27;20173;-61
2022/03/24 09:31:36;;;;;;;20.63;12.87;;;;;;;19.41;46.88;101486.44;5132171;27;20172;-61
2022/03/24 09:34:03;;;;;;;16.03;11.70;;;;;;;19.39;46.99;101489.66;5132469;27;20199;-61
2022/03/24 09:36:29;;;;;;;19.97;12.87;;;;;;;19.36;46.93;101490.34;5129687;27;20198;-62
2022/03/24 09:38:54;;;;;;;18.30;11.87;;;;;;;19.40;47.30;101484.75;5113926;27;20921;-61
2022/03/24 09:41:20;;;;;;;16.37;11.47;;;;;;;19.34;47.50;101487.03;5116861;27;20548;-61
2022/03/24 09:43:45;;;;;;;17.90;11.47;;;;;;;19.33;47.42;101482.50;5112051;28;20174;-61
2022/03/24 09:46:11;;;;;;;16.00;11.33;;;;;;;19.34;47.24;101492.75;5111785;28;20527;-61
2022/03/24 09:48:37;;;;;;;16.10;11.40;;;;;;;19.33;47.41;101479.63;5113700;27;20590;-61
2022/03/24 09:51:02;;;;;;;18.90;11.60;;;;;;;19.31;47.34;101481.19;5110596;28;20568;-61
2022/03/24 09:53:28;;;;;;;17.20;10.97;;;;;;;19.31;47.58;101479.16;5111408;28;20571;-61
2022/03/24 09:55:53;;;;;;;22.80;10.80;;;;;;;19.31;47.66;101482.00;5093452;28;20636;-61
2022/03/24 09:58:23;;;;;;;16.43;10.27;;;;;;;19.31;47.86;101484.06;5110244;28;20625;-61
2022/03/24 10:00:48;;;;;;;17.80;11.50;;;;;;;19.33;47.83;101475.94;5109787;28;20214;-61
2022/03/24 10:03:15;;;;;;;18.20;11.07;;;;;;;19.30;47.69;101468.88;5111267;28;20411;-61
2022/03/24 10:05:54;;;;;;;15.47;10.00;;;;;;;19.32;47.94;101475.06;5110962;27;20337;-62
2022/03/24 10:08:20;;;;;;;14.43;9.67;;;;;;;19.29;48.05;101472.94;5111552;27;20913;-62
2022/03/24 10:10:45;;;;;;;13.17;10.57;;;;;;;19.27;48.29;101465.91;5120709;27;20484;-62
2022/03/24 10:13:10;;;;;;;18.83;10.20;;;;;;;19.26;48.78;101478.56;5114076;27;20181;-62
2022/03/24 10:15:37;;;;;;;16.30;9.90;;;;;;;19.25;48.28;101476.88;5092591;28;20177;-62
2022/03/24 10:18:02;;;;;;;17.70;10.47;;;;;;;19.26;48.29;101473.66;5125629;27;20205;-62
2022/03/24 10:20:28;;;;;;;13.10;8.80;;;;;;;19.24;48.41;101469.47;5126989;27;20433;-62
2022/03/24 10:23:02;;;;;;;14.10;8.90;;;;;;;19.21;48.41;101464.44;5113115;27;20173;-62
2022/03/24 10:25:30;;;;;;;15.60;9.93;;;;;;;19.19;48.61;101467.66;5111212;28;20447;-64
2022/03/24 10:28:06;;;;;;;13.30;8.70;;;;;;;19.21;48.65;101464.44;5111541;28;20808;-64
2022/03/24 10:30:50;;;;;;;15.77;9.87;;;;;;;19.24;48.76;101464.59;5110060;28;20418;-62
2022/03/24 10:33:35;;;;;;;15.73;8.67;;;;;;;19.23;48.71;101465.81;5110055;28;20816;-62
2022/03/24 10:36:08;;;;;;;15.27;9.13;;;;;;;19.20;48.76;101463.59;5110918;28;20404;-62
2022/03/24 10:38:34;;;;;;;13.03;8.43;;;;;;;19.24;48.81;101460.88;5111037;28;20411;-61
2022/03/24 10:41:18;;;;;;;14.20;7.90;;;;;;;19.21;49.23;101456.69;5110394;28;20419;-61
2022/03/24 10:43:44;;;;;;;16.30;9.37;;;;;;;19.20;49.09;101454.16;5130599;27;20407;-61
2022/03/24 10:46:19;;;;;;;14.97;8.10;;;;;;;19.20;49.12;101451.31;5129659;27;20417;-61
2022/03/24 10:48:49;;;;;;;15.03;9.43;;;;;;;19.22;49.04;101444.06;5108851;27;20696;-62
2022/03/24 10:51:28;;;;;;;12.23;8.80;;;;;;;19.23;49.12;101460.06;5130936;27;20391;-62
2022/03/24 10:53:55;;;;;;;18.80;9.17;;;;;;;19.23;49.19;101450.63;5127892;27;21214;-62
2022/03/24 10:56:39;;;;;;;13.20;8.43;;;;;;;19.23;49.26;101447.78;5129944;27;20913;-62
2022/03/24 10:59:05;;;;;;;12.07;8.10;;;;;;;19.23;49.28;101442.03;5130975;27;20414;-62
2022/03/24 11:01:30;;;;;;;14.43;8.30;;;;;;;19.25;49.40;101445.38;5131024;27;20411;-62
2022/03/24 11:03:56;;;;;;;12.20;9.80;;;;;;;19.21;49.52;101436.63;5130300;27;20192;-62
2022/03/24 11:06:22;;;;;;;13.17;8.50;;;;;;;19.24;49.57;101438.84;5110988;28;20209;-62
2022/03/24 11:08:52;;;;;;;13.47;7.83;;;;;;;19.24;49.69;101440.84;5130931;27;20466;-62
2022/03/24 11:11:19;;;;;;;10.50;7.47;;;;;;;19.24;49.40;101435.97;5115725;28;20429;-62
2022/03/24 11:13:47;;;;;;;13.87;8.90;;;;;;;19.23;49.46;101434.31;5110983;28;20435;-62
2022/03/24 11:16:13;;;;;;;12.60;7.73;;;;;;;19.26;49.46;101424.16;5111279;28;20921;-62
2022/03/24 11:18:38;;;;;;;11.40;7.80;;;;;;;19.23;49.40;101428.59;5131146;28;20411;-62